createdAt,value
2022-09-15T00:01:14.078Z,13.40
2022-09-15T00:03:41.924Z,13.30
2022-09-15T00:06:11.099Z,13.20
2022-09-15T00:08:38.754Z,13.20
2022-09-15T00:11:07.684Z,13.20
2022-09-15T00:13:36.162Z,13.20
2022-09-15T00:16:04.401Z,13.20
2022-09-15T00:18:32.081Z,13.20
2022-09-15T00:21:00.003Z,13.20
2022-09-15T00:23:28.964Z,13.20
2022-09-15T00:25:56.782Z,13.20
2022-09-15T00:28:24.402Z,13.20
2022-09-15T00:30:52.955Z,13.00
2022-09-15T00:33:21.299Z,13.20
2022-09-15T00:35:50.923Z,13.10
2022-09-15T00:38:19.178Z,13.20
2022-09-15T00:40:49.837Z,13.10
2022-09-15T00:43:18.392Z,13.10
2022-09-15T00:45:46.487Z,13.10
2022-09-15T00:48:15.044Z,13.10
2022-09-15T00:50:44.540Z,13.10
2022-09-15T00:53:12.742Z,13.10
2022-09-15T00:55:42.037Z,13.00
2022-09-15T00:58:12.935Z,13.00
2022-09-15T01:00:44.671Z,13.00
2022-09-15T01:03:12.400Z,12.90
2022-09-15T01:05:41.926Z,12.90
2022-09-15T01:08:10.645Z,12.90
2022-09-15T01:10:39.734Z,12.90
2022-09-15T01:13:10.245Z,12.90
2022-09-15T01:15:43.471Z,12.80
2022-09-15T01:18:13.771Z,12.70
2022-09-15T01:20:58.095Z,12.70
2022-09-15T01:23:39.072Z,12.80
2022-09-15T01:26:21.604Z,12.90
2022-09-15T01:29:16.231Z,12.80
2022-09-15T01:32:01.829Z,12.70
2022-09-15T01:34:33.839Z,12.60
2022-09-15T01:37:03.626Z,12.70
2022-09-15T01:39:33.201Z,12.70
2022-09-15T01:42:02.714Z,12.80
2022-09-15T01:44:31.904Z,12.80
2022-09-15T01:47:02.396Z,12.70
2022-09-15T01:49:32.119Z,12.70
2022-09-15T01:51:59.722Z,12.70
2022-09-15T01:54:32.698Z,12.70
2022-09-15T01:57:00.316Z,13.90
2022-09-15T01:59:27.951Z,12.60
2022-09-15T02:01:59.872Z,12.50
2022-09-15T02:04:31.350Z,12.40
2022-09-15T02:07:00.912Z,12.40
2022-09-15T02:09:30.049Z,12.50
2022-09-15T02:12:01.955Z,12.30
2022-09-15T02:14:36.226Z,12.20
2022-09-15T02:17:05.446Z,12.30
2022-09-15T02:19:36.930Z,12.30
2022-09-15T02:22:07.688Z,12.40
2022-09-15T02:24:37.555Z,12.40
2022-09-15T02:27:05.952Z,12.40
2022-09-15T02:29:34.662Z,12.30
2022-09-15T02:32:07.107Z,12.20
2022-09-15T02:34:38.069Z,12.20
2022-09-15T02:37:06.273Z,12.20
2022-09-15T02:39:35.334Z,12.20
2022-09-15T02:42:03.009Z,12.10
2022-09-15T02:44:31.340Z,12.10
2022-09-15T02:46:59.031Z,12.10
2022-09-15T02:49:26.691Z,12.10
2022-09-15T02:51:55.660Z,12.20
2022-09-15T02:54:23.347Z,12.20
2022-09-15T02:56:50.909Z,12.20
2022-09-15T02:59:18.480Z,12.20
2022-09-15T03:01:46.131Z,12.20
2022-09-15T03:04:13.770Z,12.30
2022-09-15T03:06:42.643Z,12.20
2022-09-15T03:09:12.498Z,12.30
2022-09-15T03:11:40.104Z,12.30
2022-09-15T03:14:08.237Z,12.30
2022-09-15T03:16:36.584Z,12.30
2022-09-15T03:19:04.504Z,12.30
2022-09-15T03:21:32.088Z,12.20
2022-09-15T03:24:00.526Z,12.20
2022-09-15T03:26:29.511Z,12.30
2022-09-15T03:28:57.136Z,12.30
2022-09-15T03:31:24.826Z,12.30
2022-09-15T03:33:54.707Z,12.30
2022-09-15T03:36:22.343Z,12.30
2022-09-15T03:38:50.007Z,12.30
2022-09-15T03:41:18.937Z,12.30
2022-09-15T03:43:47.838Z,12.40
2022-09-15T03:46:15.556Z,12.30
2022-09-15T03:48:43.377Z,12.30
2022-09-15T03:51:11.462Z,12.30
2022-09-15T03:53:40.021Z,12.30
2022-09-15T03:56:08.498Z,12.30
2022-09-15T03:58:36.237Z,12.30
2022-09-15T04:01:05.253Z,12.30
2022-09-15T04:03:32.897Z,12.30
2022-09-15T04:06:00.462Z,12.30
2022-09-15T04:08:28.272Z,12.30
2022-09-15T04:10:55.988Z,12.30
2022-09-15T04:13:28.457Z,12.20
2022-09-15T04:16:00.998Z,12.20
2022-09-15T04:18:30.218Z,12.30
2022-09-15T04:20:59.776Z,12.30
2022-09-15T04:23:27.453Z,12.30
2022-09-15T04:25:55.470Z,12.30
2022-09-15T04:28:23.155Z,12.30
2022-09-15T04:30:50.750Z,12.30
2022-09-15T04:33:20.244Z,12.30
2022-09-15T04:35:49.150Z,12.30
2022-09-15T04:38:16.741Z,12.30
2022-09-15T04:40:44.301Z,12.30
2022-09-15T04:43:11.976Z,12.40
2022-09-15T04:45:39.573Z,12.30
2022-09-15T04:48:07.160Z,12.40
2022-09-15T04:50:34.797Z,12.30
2022-09-15T04:53:03.858Z,12.30
2022-09-15T04:55:32.693Z,12.30
2022-09-15T04:58:00.335Z,12.30
2022-09-15T05:00:27.975Z,12.30
2022-09-15T05:02:55.542Z,12.20
2022-09-15T05:05:23.126Z,12.20
2022-09-15T05:07:51.037Z,12.20
2022-09-15T05:10:20.224Z,12.30
2022-09-15T05:12:47.885Z,12.30
2022-09-15T05:15:15.525Z,12.40
2022-09-15T05:17:43.086Z,12.40
2022-09-15T05:20:10.775Z,12.40
2022-09-15T05:22:41.680Z,12.40
2022-09-15T05:25:10.170Z,12.40
2022-09-15T05:27:39.717Z,12.40
2022-09-15T05:30:35.170Z,12.50
2022-09-15T05:32:56.170Z,12.50
2022-09-15T05:35:24.429Z,12.50
2022-09-15T05:37:59.576Z,12.50
2022-09-15T05:40:27.367Z,12.50
2022-09-15T05:42:56.287Z,12.60
2022-09-15T05:45:24.000Z,12.60
2022-09-15T05:47:51.603Z,12.60
2022-09-15T05:50:19.226Z,12.70
2022-09-15T05:52:51.503Z,12.70
2022-09-15T05:55:19.126Z,12.80
2022-09-15T05:57:46.749Z,12.80
2022-09-15T06:00:16.220Z,12.80
2022-09-15T06:02:44.150Z,12.90
2022-09-15T06:05:11.832Z,12.90
2022-09-15T06:07:39.485Z,12.90
2022-09-15T06:10:07.810Z,12.90
2022-09-15T06:12:35.448Z,13.00
2022-09-15T06:15:03.023Z,13.00
2022-09-15T06:17:34.034Z,13.00
2022-09-15T06:20:01.642Z,13.10
2022-09-15T06:22:29.245Z,13.10
2022-09-15T06:24:56.824Z,13.10
2022-09-15T06:27:24.571Z,13.10
2022-09-15T06:29:52.317Z,13.10
2022-09-15T06:32:19.903Z,13.20
2022-09-15T06:34:48.840Z,13.20
2022-09-15T06:37:16.492Z,13.20
2022-09-15T06:39:44.591Z,13.30
2022-09-15T06:42:14.004Z,13.30
2022-09-15T06:44:41.994Z,13.40
2022-09-15T06:47:10.523Z,13.40
2022-09-15T06:49:38.091Z,13.40
2022-09-15T06:52:07.089Z,13.50
2022-09-15T06:54:34.711Z,13.50
2022-09-15T06:57:02.324Z,13.60
2022-09-15T06:59:29.916Z,13.60
2022-09-15T07:02:02.658Z,13.70
2022-09-15T07:04:32.407Z,13.70
2022-09-15T07:07:00.014Z,13.80
2022-09-15T07:09:31.993Z,13.80
2022-09-15T07:11:59.643Z,13.90
2022-09-15T07:14:27.278Z,13.90
2022-09-15T07:16:54.829Z,14.00
2022-09-15T07:19:22.378Z,14.10
2022-09-15T07:21:50.335Z,14.10
2022-09-15T07:24:17.878Z,14.20
2022-09-15T07:26:46.831Z,14.20
2022-09-15T07:29:14.513Z,14.20
2022-09-15T07:31:42.139Z,14.30
2022-09-15T07:34:09.750Z,14.30
2022-09-15T07:36:37.457Z,14.30
2022-09-15T07:39:06.787Z,14.30
2022-09-15T07:41:34.480Z,14.30
2022-09-15T07:44:03.975Z,14.40
2022-09-15T07:46:32.326Z,14.40
2022-09-15T07:49:00.622Z,14.50
2022-09-15T07:51:28.213Z,14.50
2022-09-15T07:53:55.916Z,14.50
2022-09-15T07:56:24.553Z,14.50
2022-09-15T07:58:52.515Z,14.60
2022-09-15T08:01:22.384Z,14.60
2022-09-15T08:03:51.817Z,14.60
2022-09-15T08:06:20.669Z,14.70
2022-09-15T08:08:49.081Z,14.70
2022-09-15T08:11:19.004Z,14.70
2022-09-15T08:13:47.050Z,14.80
2022-09-15T08:16:16.116Z,14.80
2022-09-15T08:18:47.414Z,14.80
2022-09-15T08:21:16.299Z,14.90
2022-09-15T08:23:44.242Z,14.80
2022-09-15T08:26:14.584Z,14.90
2022-09-15T08:28:43.166Z,14.90
2022-09-15T08:31:12.169Z,15.00
2022-09-15T08:33:43.327Z,15.00
2022-09-15T08:36:14.616Z,15.00
2022-09-15T08:38:42.886Z,15.10
2022-09-15T08:41:12.442Z,15.10
2022-09-15T08:43:42.989Z,15.10
2022-09-15T08:46:13.833Z,15.20
2022-09-15T08:48:44.632Z,15.20
2022-09-15T08:51:17.040Z,15.20
2022-09-15T08:53:46.475Z,15.20
2022-09-15T08:56:17.025Z,15.30
2022-09-15T08:58:45.624Z,15.30
2022-09-15T09:01:18.457Z,15.40
2022-09-15T09:03:53.020Z,15.40
2022-09-15T09:06:27.796Z,15.40
2022-09-15T09:09:01.353Z,15.50
2022-09-15T09:11:33.454Z,15.60
2022-09-15T09:14:04.543Z,15.60
2022-09-15T09:16:40.255Z,15.60
2022-09-15T09:19:22.293Z,15.70
2022-09-15T09:21:54.577Z,15.70
2022-09-15T09:24:27.496Z,15.80
2022-09-15T09:26:56.304Z,15.90
2022-09-15T09:29:27.876Z,15.90
2022-09-15T09:31:59.568Z,16.00
2022-09-15T09:34:36.303Z,16.10
2022-09-15T09:37:10.169Z,16.10
2022-09-15T09:39:37.755Z,16.10
2022-09-15T09:42:06.656Z,16.20
2022-09-15T09:44:35.238Z,16.30
2022-09-15T09:47:02.910Z,16.30
2022-09-15T09:49:31.674Z,16.40
2022-09-15T09:52:00.065Z,16.50
2022-09-15T09:54:31.118Z,16.60
2022-09-15T09:57:18.728Z,16.60
2022-09-15T09:59:48.328Z,16.60
2022-09-15T10:02:17.403Z,16.70
2022-09-15T10:04:46.086Z,16.70
2022-09-15T10:07:14.610Z,16.70
2022-09-15T10:09:50.071Z,16.70
2022-09-15T10:12:20.617Z,16.80
2022-09-15T10:14:52.956Z,16.80
2022-09-15T10:17:21.797Z,16.80
2022-09-15T10:19:50.489Z,16.90
2022-09-15T10:22:22.348Z,16.90
2022-09-15T10:24:50.748Z,16.90
2022-09-15T10:27:19.794Z,16.90
2022-09-15T10:29:47.785Z,17.00
2022-09-15T10:32:25.258Z,17.00
2022-09-15T10:35:03.625Z,17.00
2022-09-15T10:37:33.121Z,17.10
2022-09-15T10:40:01.939Z,17.20
2022-09-15T10:42:37.484Z,17.20
2022-09-15T10:45:12.646Z,17.30
2022-09-15T10:47:48.113Z,17.30
2022-09-15T10:50:18.072Z,17.30
2022-09-15T10:52:55.068Z,17.30
2022-09-15T10:55:52.370Z,17.30
2022-09-15T10:58:34.462Z,17.30
2022-09-15T11:01:05.954Z,17.40
2022-09-15T11:03:41.127Z,17.50
2022-09-15T11:06:15.926Z,17.60
2022-09-15T11:08:46.966Z,17.60
2022-09-15T11:11:18.568Z,17.70
2022-09-15T11:13:51.958Z,17.60
2022-09-15T11:16:28.216Z,17.60
2022-09-15T11:19:05.203Z,17.70
2022-09-15T11:21:35.207Z,17.70
2022-09-15T11:24:16.702Z,17.70
2022-09-15T11:26:48.748Z,17.80
2022-09-15T11:29:18.442Z,17.80
2022-09-15T11:31:48.631Z,17.80
2022-09-15T11:34:20.901Z,17.80
2022-09-15T11:36:50.506Z,17.80
2022-09-15T11:39:20.325Z,17.90
2022-09-15T11:41:52.432Z,17.80
2022-09-15T11:44:23.127Z,17.80
2022-09-15T11:46:57.433Z,17.80
2022-09-15T11:49:28.613Z,17.80
2022-09-15T11:51:59.894Z,17.70
2022-09-15T11:54:31.698Z,17.70
2022-09-15T11:57:00.073Z,17.70
2022-09-15T11:59:32.250Z,17.70
2022-09-15T12:02:04.279Z,17.60
2022-09-15T12:04:36.215Z,17.60
2022-09-15T12:07:08.784Z,17.60
2022-09-15T12:09:39.459Z,17.60
2022-09-15T12:12:09.487Z,17.60
2022-09-15T12:14:38.041Z,17.60
2022-09-15T12:17:06.216Z,17.50
2022-09-15T12:19:41.699Z,17.60
2022-09-15T12:22:13.441Z,17.70
2022-09-15T12:24:45.878Z,17.70
2022-09-15T12:27:15.869Z,17.80
2022-09-15T12:29:49.146Z,17.80
2022-09-15T12:32:20.987Z,17.80
2022-09-15T12:35:00.467Z,17.80
2022-09-15T12:37:31.218Z,17.80
2022-09-15T12:39:58.973Z,17.80
2022-09-15T12:42:29.446Z,17.80
2022-09-15T12:44:59.090Z,17.70
2022-09-15T12:47:31.765Z,17.70
2022-09-15T12:50:03.270Z,17.70
2022-09-15T12:52:32.703Z,17.70
2022-09-15T12:55:01.875Z,17.70
2022-09-15T12:57:32.063Z,17.80
2022-09-15T13:00:33.218Z,17.80
2022-09-15T13:03:01.863Z,17.90
2022-09-15T13:05:50.484Z,18.10
2022-09-15T13:08:33.337Z,18.20
2022-09-15T13:11:03.486Z,18.30
2022-09-15T13:13:35.147Z,18.30
2022-09-15T13:16:03.177Z,18.30
2022-09-15T13:18:31.875Z,18.30
2022-09-15T13:21:01.334Z,18.30
2022-09-15T13:23:29.819Z,18.30
2022-09-15T13:25:58.876Z,18.20
2022-09-15T13:28:28.127Z,18.20
2022-09-15T13:31:09.078Z,18.20
2022-09-15T13:39:37.740Z,18.00
2022-09-15T13:42:19.493Z,18.00
2022-09-15T13:44:59.986Z,18.00
2022-09-15T13:47:33.373Z,18.00
2022-09-15T13:50:06.841Z,18.00
2022-09-15T13:52:46.203Z,18.10
2022-09-15T13:55:19.517Z,18.10
2022-09-15T14:00:44.752Z,18.10
2022-09-15T14:03:15.374Z,18.10
2022-09-15T14:05:43.238Z,18.20
2022-09-15T14:08:14.290Z,18.30
2022-09-15T14:10:48.432Z,18.30
2022-09-15T14:13:17.537Z,18.30
2022-09-15T14:16:00.704Z,18.40
2022-09-15T14:18:28.770Z,18.40
2022-09-15T14:21:01.360Z,18.40
2022-09-15T14:23:31.813Z,18.50
2022-09-15T14:26:01.071Z,18.50
2022-09-15T14:28:32.703Z,18.50
2022-09-15T14:31:02.125Z,18.60
2022-09-15T14:33:37.478Z,18.60
2022-09-15T14:36:12.862Z,18.60
2022-09-15T14:38:40.442Z,18.60
2022-09-15T14:41:14.212Z,18.60
2022-09-15T14:43:42.512Z,18.70
2022-09-15T14:46:12.335Z,18.80
2022-09-15T14:48:40.032Z,18.80
2022-09-15T14:51:11.834Z,18.80
2022-09-15T14:53:41.128Z,18.90
2022-09-15T14:56:11.477Z,19.00
2022-09-15T14:58:42.400Z,19.00
2022-09-15T15:01:15.640Z,19.00
2022-09-15T15:03:45.073Z,19.00
2022-09-15T15:06:30.767Z,19.10
2022-09-15T15:09:00.672Z,19.10
2022-09-15T15:11:29.032Z,19.00
2022-09-15T15:13:57.495Z,19.10
2022-09-15T15:16:27.950Z,19.10
2022-09-15T15:18:57.043Z,19.00
2022-09-15T15:21:36.646Z,19.00
2022-09-15T15:24:16.043Z,18.90
2022-09-15T15:26:44.372Z,19.10
2022-09-15T15:29:28.044Z,19.10
2022-09-15T15:32:04.224Z,19.10
2022-09-15T15:34:33.724Z,19.10
2022-09-15T15:37:03.212Z,19.10
2022-09-15T15:39:31.069Z,18.90
2022-09-15T15:42:03.446Z,18.80
2022-09-15T15:44:31.413Z,18.70
2022-09-15T15:47:04.840Z,18.60
2022-09-15T15:50:02.375Z,18.60
2022-09-15T15:52:30.924Z,18.40
2022-09-15T15:54:58.494Z,18.40
2022-09-15T15:57:27.511Z,18.40
2022-09-15T15:59:57.330Z,18.30
2022-09-15T16:02:26.652Z,18.30
2022-09-15T16:04:54.857Z,18.30
2022-09-15T16:07:32.508Z,18.20
2022-09-15T16:10:01.330Z,18.20
2022-09-15T16:12:33.286Z,18.10
2022-09-15T16:15:03.433Z,18.10
2022-09-15T16:17:32.548Z,18.10
2022-09-15T16:20:00.129Z,18.10
2022-09-15T16:22:28.007Z,18.00
2022-09-15T16:24:55.856Z,18.10
2022-09-15T16:27:23.611Z,18.00
2022-09-15T16:29:51.223Z,17.90
2022-09-15T16:32:19.633Z,17.90
2022-09-15T16:34:51.123Z,17.80
2022-09-15T16:37:18.896Z,17.80
2022-09-15T16:39:46.542Z,17.80
2022-09-15T16:42:14.875Z,17.80
2022-09-15T16:44:43.045Z,17.70
2022-09-15T16:47:10.642Z,17.80
2022-09-15T16:49:39.414Z,17.70
2022-09-15T16:52:09.365Z,17.70
2022-09-15T16:54:37.152Z,17.70
2022-09-15T16:57:08.851Z,17.70
2022-09-15T16:59:36.657Z,17.60
2022-09-15T17:02:04.331Z,17.60
2022-09-15T17:04:32.277Z,17.60
2022-09-15T17:06:59.919Z,17.60
2022-09-15T17:09:28.798Z,17.50
2022-09-15T17:11:56.597Z,17.40
2022-09-15T17:14:24.248Z,17.30
2022-09-15T17:16:52.913Z,17.30
2022-09-15T17:19:20.579Z,17.10
2022-09-15T17:21:50.161Z,17.00
2022-09-15T17:24:18.176Z,16.90
2022-09-15T17:26:47.297Z,16.70
2022-09-15T17:29:14.893Z,16.60
2022-09-15T17:31:43.559Z,16.60
2022-09-15T17:34:13.839Z,16.70
2022-09-15T17:36:41.778Z,16.60
2022-09-15T17:39:09.446Z,16.50
2022-09-15T17:41:38.667Z,16.50
2022-09-15T17:44:09.478Z,16.60
2022-09-15T17:46:37.361Z,16.40
2022-09-15T17:49:05.005Z,16.40
2022-09-15T17:51:32.843Z,16.40
2022-09-15T17:54:00.491Z,16.30
2022-09-15T17:56:28.223Z,16.30
2022-09-15T17:58:56.041Z,16.10
2022-09-15T18:01:25.143Z,16.00
2022-09-15T18:03:52.936Z,16.10
2022-09-15T18:06:20.605Z,16.10
2022-09-15T18:08:48.389Z,16.10
2022-09-15T18:11:16.200Z,16.10
2022-09-15T18:13:43.988Z,16.10
2022-09-15T18:16:13.721Z,16.00
2022-09-15T18:18:43.179Z,16.00
2022-09-15T18:21:13.065Z,15.90
2022-09-15T18:23:42.380Z,15.80
2022-09-15T18:26:10.233Z,15.90
2022-09-15T18:28:37.857Z,15.80
2022-09-15T18:31:05.996Z,15.70
2022-09-15T18:33:33.636Z,15.70
2022-09-15T18:36:03.220Z,15.70
2022-09-15T18:38:31.547Z,15.70
2022-09-15T18:40:59.502Z,15.70
2022-09-15T18:43:28.472Z,15.70
2022-09-15T18:45:58.975Z,15.60
2022-09-15T18:48:26.742Z,15.60
2022-09-15T18:50:55.122Z,15.50
2022-09-15T18:53:24.576Z,15.50
2022-09-15T18:55:52.389Z,15.60
2022-09-15T18:58:20.170Z,15.50
2022-09-15T19:00:49.023Z,15.60
2022-09-15T19:03:16.621Z,15.60
2022-09-15T19:05:45.720Z,15.50
2022-09-15T19:08:13.356Z,15.50
2022-09-15T19:10:44.121Z,15.50
2022-09-15T19:13:14.033Z,15.50
2022-09-15T19:15:43.403Z,15.50
2022-09-15T19:18:11.210Z,15.50
2022-09-15T19:20:40.152Z,15.50
2022-09-15T19:23:07.789Z,15.50
2022-09-15T19:25:35.418Z,15.60
2022-09-15T19:28:04.736Z,15.50
2022-09-15T19:30:32.381Z,15.40
2022-09-15T19:32:59.997Z,15.40
2022-09-15T19:35:27.548Z,15.40
2022-09-15T19:37:55.244Z,15.40
2022-09-15T19:40:23.772Z,15.40
2022-09-15T19:42:51.813Z,15.40
2022-09-15T19:45:20.950Z,15.40
2022-09-15T19:47:49.216Z,15.30
2022-09-15T19:50:16.862Z,15.30
2022-09-15T19:52:45.067Z,15.30
2022-09-15T19:55:13.367Z,15.30
2022-09-15T19:57:41.322Z,15.20
2022-09-15T20:00:10.253Z,15.20
2022-09-15T20:02:39.482Z,15.10
2022-09-15T20:05:07.904Z,15.00
2022-09-15T20:07:35.713Z,15.00
2022-09-15T20:10:03.340Z,15.00
2022-09-15T20:12:31.245Z,14.90
2022-09-15T20:14:59.171Z,14.90
2022-09-15T20:17:26.800Z,14.90
2022-09-15T20:19:56.111Z,14.90
2022-09-15T20:22:25.788Z,14.80
2022-09-15T20:24:53.362Z,14.70
2022-09-15T20:27:20.971Z,14.80
2022-09-15T20:29:48.738Z,14.80
2022-09-15T20:32:16.607Z,14.80
2022-09-15T20:34:44.169Z,14.70
2022-09-15T20:37:13.103Z,14.60
2022-09-15T20:39:40.898Z,14.60
2022-09-15T20:42:08.532Z,14.50
2022-09-15T20:44:36.149Z,14.60
2022-09-15T20:47:03.812Z,14.50
2022-09-15T20:49:31.351Z,14.40
2022-09-15T20:51:59.125Z,14.40
2022-09-15T20:54:28.001Z,14.40
2022-09-15T20:56:55.794Z,14.50
2022-09-15T20:59:23.503Z,14.50
2022-09-15T21:01:51.102Z,14.40
2022-09-15T21:04:19.135Z,14.30
2022-09-15T21:06:46.714Z,14.30
2022-09-15T21:09:14.630Z,14.30
2022-09-15T21:11:44.158Z,14.30
2022-09-15T21:14:13.031Z,14.30
2022-09-15T21:16:40.984Z,14.30
2022-09-15T21:19:09.647Z,14.20
2022-09-15T21:21:37.353Z,14.10
2022-09-15T21:24:06.078Z,14.10
2022-09-15T21:26:34.481Z,14.10
2022-09-15T21:29:04.137Z,14.10
2022-09-15T21:31:32.291Z,14.10
2022-09-15T21:34:00.196Z,14.10
2022-09-15T21:36:29.632Z,14.00
2022-09-15T21:38:58.163Z,14.10
2022-09-15T21:41:27.106Z,14.00
2022-09-15T21:43:55.743Z,14.00
2022-09-15T21:46:25.862Z,13.90
2022-09-15T21:48:53.522Z,13.80
2022-09-15T21:51:24.647Z,13.80
2022-09-15T21:53:53.437Z,13.80
2022-09-15T21:56:21.477Z,13.80
2022-09-15T21:58:49.253Z,13.90
2022-09-15T22:01:19.013Z,13.80
2022-09-15T22:03:50.928Z,13.80
2022-09-15T22:06:19.216Z,13.70
2022-09-15T22:08:47.263Z,13.70
2022-09-15T22:11:14.972Z,13.70
2022-09-15T22:13:43.716Z,13.70
2022-09-15T22:16:13.592Z,13.60
2022-09-15T22:18:41.877Z,13.60
2022-09-15T22:21:12.705Z,13.60
2022-09-15T22:23:40.489Z,13.50
2022-09-15T22:26:09.922Z,13.60
2022-09-15T22:28:37.755Z,13.60
2022-09-15T22:31:07.658Z,13.50
2022-09-15T22:33:35.420Z,13.50
2022-09-15T22:36:03.235Z,13.50
2022-09-15T22:38:32.227Z,13.50
2022-09-15T22:41:03.943Z,13.50
2022-09-15T22:43:31.576Z,13.50
2022-09-15T22:46:02.327Z,13.40
2022-09-15T22:48:29.982Z,13.40
2022-09-15T22:50:57.548Z,13.40
2022-09-15T22:53:25.399Z,13.40
2022-09-15T22:56:04.050Z,13.30
2022-09-15T22:58:31.732Z,13.30
2022-09-15T23:01:03.262Z,13.30
2022-09-15T23:03:31.239Z,13.30
2022-09-15T23:05:59.052Z,13.30
2022-09-15T23:08:26.660Z,13.40
2022-09-15T23:11:01.344Z,13.40
2022-09-15T23:13:28.894Z,13.30
2022-09-15T23:15:56.551Z,13.20
2022-09-15T23:18:24.234Z,13.20
2022-09-15T23:20:56.477Z,13.20
2022-09-15T23:23:24.128Z,13.20
2022-09-15T23:25:51.793Z,13.10
2022-09-15T23:28:21.049Z,13.10
2022-09-15T23:30:51.895Z,13.00
2022-09-15T23:33:19.528Z,13.10
2022-09-15T23:35:47.339Z,13.00
2022-09-15T23:38:15.166Z,12.90
2022-09-15T23:40:43.338Z,12.90
2022-09-15T23:43:11.094Z,13.00
2022-09-15T23:45:40.314Z,13.00
2022-09-15T23:48:08.833Z,13.00
2022-09-15T23:50:36.547Z,13.00
2022-09-15T23:53:04.353Z,13.00
2022-09-15T23:55:32.167Z,12.90
2022-09-15T23:57:59.776Z,12.90
